createdAt,value
2018-05-06T00:00:21.343Z,11.50
2018-05-06T00:02:48.870Z,11.50
2018-05-06T00:05:17.182Z,11.60
2018-05-06T00:07:44.741Z,11.50
2018-05-06T00:10:12.312Z,11.60
2018-05-06T00:12:39.859Z,11.60
2018-05-06T00:15:07.380Z,11.60
2018-05-06T00:17:35.716Z,11.50
2018-05-06T00:20:03.226Z,11.40
2018-05-06T00:22:32.041Z,11.50
2018-05-06T00:24:59.582Z,11.40
2018-05-06T00:27:27.135Z,11.50
2018-05-06T00:29:55.446Z,11.60
2018-05-06T00:32:22.972Z,11.50
2018-05-06T00:34:51.259Z,11.60
2018-05-06T00:37:18.855Z,11.50
2018-05-06T00:39:46.384Z,11.50
2018-05-06T00:42:13.954Z,11.50
2018-05-06T00:44:41.462Z,11.50
2018-05-06T00:47:09.761Z,11.40
2018-05-06T00:49:37.291Z,11.40
2018-05-06T00:52:04.833Z,11.40
2018-05-06T00:54:43.838Z,11.30
2018-05-06T00:57:11.385Z,11.30
2018-05-06T00:59:38.957Z,11.20
2018-05-06T01:02:06.515Z,11.10
2018-05-06T01:04:34.071Z,11.00
2018-05-06T01:07:01.824Z,10.70
2018-05-06T01:09:29.341Z,10.50
2018-05-06T01:11:57.638Z,10.40
2018-05-06T01:14:25.230Z,10.30
2018-05-06T01:16:52.767Z,10.10
2018-05-06T01:19:20.321Z,9.80
2018-05-06T01:21:47.903Z,9.50
2018-05-06T01:24:15.419Z,9.50
2018-05-06T01:26:43.709Z,9.60
2018-05-06T01:29:11.225Z,9.60
2018-05-06T01:31:38.779Z,9.80
2018-05-06T01:34:06.421Z,9.70
2018-05-06T01:36:33.941Z,9.90
2018-05-06T01:39:02.374Z,10.00
2018-05-06T01:41:29.907Z,10.00
2018-05-06T01:43:57.481Z,10.10
2018-05-06T01:46:25.003Z,10.10
2018-05-06T01:48:52.587Z,10.10
2018-05-06T01:51:20.124Z,10.00
2018-05-06T01:53:47.698Z,10.00
2018-05-06T01:56:15.247Z,10.00
2018-05-06T01:58:42.769Z,9.90
2018-05-06T02:01:11.040Z,9.60
2018-05-06T02:03:39.340Z,9.30
2018-05-06T02:06:06.926Z,9.30
2018-05-06T02:08:34.457Z,9.30
2018-05-06T02:11:01.966Z,9.50
2018-05-06T02:13:29.491Z,9.60
2018-05-06T02:15:57.020Z,9.70
2018-05-06T02:18:25.322Z,9.80
2018-05-06T02:20:52.850Z,9.70
2018-05-06T02:23:21.166Z,9.90
2018-05-06T02:25:48.694Z,9.90
2018-05-06T02:28:16.229Z,10.00
2018-05-06T02:30:43.736Z,10.00
2018-05-06T02:33:11.393Z,10.00
2018-05-06T02:35:38.948Z,10.10
2018-05-06T02:38:06.484Z,10.10
2018-05-06T02:40:35.005Z,10.00
2018-05-06T02:43:02.540Z,9.90
2018-05-06T02:45:30.064Z,10.00
2018-05-06T02:47:57.682Z,10.00
2018-05-06T02:50:25.213Z,10.00
2018-05-06T02:52:52.803Z,10.00
2018-05-06T02:55:20.361Z,10.10
2018-05-06T02:57:47.869Z,10.10
2018-05-06T03:00:16.163Z,10.00
2018-05-06T03:02:43.684Z,9.90
2018-05-06T03:05:11.319Z,10.00
2018-05-06T03:07:38.850Z,10.10
2018-05-06T03:10:06.416Z,10.10
2018-05-06T03:12:33.983Z,10.10
2018-05-06T03:15:01.529Z,10.00
2018-05-06T03:17:29.065Z,10.00
2018-05-06T03:19:57.386Z,9.90
2018-05-06T03:22:24.923Z,9.80
2018-05-06T03:24:53.056Z,9.90
2018-05-06T03:27:21.342Z,9.70
2018-05-06T03:29:49.777Z,9.50
2018-05-06T03:32:17.277Z,9.50
2018-05-06T03:34:45.587Z,9.40
2018-05-06T03:37:13.102Z,9.30
2018-05-06T03:39:41.385Z,9.10
2018-05-06T03:42:09.676Z,8.80
2018-05-06T03:44:37.291Z,8.80
2018-05-06T03:47:04.796Z,8.70
2018-05-06T03:49:32.343Z,8.50
2018-05-06T03:52:00.632Z,8.30
2018-05-06T03:54:29.028Z,8.30
2018-05-06T03:57:08.503Z,8.20
2018-05-06T03:59:47.905Z,8.20
2018-05-06T04:02:31.352Z,8.10
2018-05-06T04:04:58.891Z,8.20
2018-05-06T04:07:26.411Z,8.30
2018-05-06T04:09:54.830Z,8.00
2018-05-06T04:12:22.396Z,8.00
2018-05-06T04:14:49.922Z,8.10
2018-05-06T04:17:17.455Z,8.00
2018-05-06T04:19:45.795Z,8.10
2018-05-06T04:22:13.318Z,8.00
2018-05-06T04:24:40.870Z,8.10
2018-05-06T04:27:08.461Z,8.00
2018-05-06T04:29:35.981Z,7.90
2018-05-06T04:32:04.282Z,8.00
2018-05-06T04:34:31.799Z,7.90
2018-05-06T04:36:59.344Z,8.20
2018-05-06T04:39:26.871Z,8.20
2018-05-06T04:41:54.403Z,8.10
2018-05-06T04:44:22.008Z,8.10
2018-05-06T04:46:51.084Z,8.00
2018-05-06T04:49:18.606Z,8.00
2018-05-06T04:51:46.918Z,8.30
2018-05-06T04:54:14.433Z,8.30
2018-05-06T04:56:43.149Z,8.60
2018-05-06T04:59:10.720Z,8.60
2018-05-06T05:01:38.280Z,8.70
2018-05-06T05:04:05.807Z,8.70
2018-05-06T05:06:33.410Z,8.90
2018-05-06T05:09:00.959Z,9.10
2018-05-06T05:11:28.516Z,9.20
2018-05-06T05:13:56.080Z,9.40
2018-05-06T05:16:23.732Z,9.40
2018-05-06T05:18:51.253Z,9.50
2018-05-06T05:21:19.563Z,9.90
2018-05-06T05:23:47.081Z,9.90
2018-05-06T05:26:15.376Z,10.30
2018-05-06T05:28:42.909Z,10.20
2018-05-06T05:31:11.229Z,10.50
2018-05-06T05:33:38.796Z,10.40
2018-05-06T05:36:06.316Z,10.70
2018-05-06T05:38:34.730Z,10.90
2018-05-06T05:41:02.291Z,10.90
2018-05-06T05:43:29.845Z,11.10
2018-05-06T05:45:57.395Z,11.20
2018-05-06T05:48:24.971Z,11.40
2018-05-06T05:50:52.482Z,11.50
2018-05-06T05:53:20.790Z,11.70
2018-05-06T05:55:48.314Z,11.60
2018-05-06T05:58:16.620Z,11.70
2018-05-06T06:00:44.196Z,11.70
2018-05-06T06:03:11.771Z,11.80
2018-05-06T06:05:39.315Z,12.00
2018-05-06T06:08:06.857Z,12.10
2018-05-06T06:10:34.422Z,12.20
2018-05-06T06:13:01.961Z,12.30
2018-05-06T06:15:29.583Z,12.40
2018-05-06T06:17:57.065Z,12.50
2018-05-06T06:20:25.377Z,12.70
2018-05-06T06:22:53.105Z,12.70
2018-05-06T06:25:21.391Z,13.00
2018-05-06T06:27:48.929Z,12.90
2018-05-06T06:30:17.218Z,13.30
2018-05-06T06:32:45.647Z,13.40
2018-05-06T06:35:13.204Z,13.40
2018-05-06T06:37:40.853Z,13.60
2018-05-06T06:40:08.366Z,13.60
2018-05-06T06:42:36.685Z,14.00
2018-05-06T06:45:04.245Z,14.00
2018-05-06T06:47:31.794Z,14.20
2018-05-06T06:49:59.341Z,14.40
2018-05-06T06:52:26.918Z,14.50
2018-05-06T06:54:54.448Z,14.60
2018-05-06T06:57:21.964Z,14.70
2018-05-06T06:59:49.623Z,14.80
2018-05-06T07:02:17.248Z,14.90
2018-05-06T07:04:44.820Z,15.10
2018-05-06T07:07:12.326Z,15.20
2018-05-06T07:09:40.637Z,15.50
2018-05-06T07:12:08.157Z,15.40
2018-05-06T07:14:36.490Z,15.70
2018-05-06T07:17:04.017Z,15.60
2018-05-06T07:19:31.561Z,15.80
2018-05-06T07:21:59.849Z,16.10
2018-05-06T07:24:27.397Z,16.00
2018-05-06T07:26:55.676Z,16.30
2018-05-06T07:29:23.359Z,16.30
2018-05-06T07:31:50.893Z,16.50
2018-05-06T07:34:19.185Z,16.60
2018-05-06T07:36:46.711Z,16.50
2018-05-06T07:39:15.014Z,16.80
2018-05-06T07:41:42.558Z,16.80
2018-05-06T07:44:10.857Z,17.10
2018-05-06T07:46:38.400Z,17.00
2018-05-06T07:49:05.976Z,17.20
2018-05-06T07:51:33.497Z,17.30
2018-05-06T07:54:01.788Z,17.40
2018-05-06T07:56:30.091Z,17.50
2018-05-06T07:58:57.654Z,17.50
2018-05-06T08:01:25.187Z,17.60
2018-05-06T08:03:52.703Z,17.70
2018-05-06T08:06:21.002Z,17.90
2018-05-06T08:08:49.322Z,17.90
2018-05-06T08:11:16.863Z,17.90
2018-05-06T08:13:44.387Z,18.00
2018-05-06T08:16:11.986Z,18.20
2018-05-06T08:18:39.476Z,18.30
2018-05-06T08:21:07.025Z,18.40
2018-05-06T08:23:34.573Z,18.50
2018-05-06T08:26:02.328Z,18.60
2018-05-06T08:28:29.852Z,18.60
2018-05-06T08:30:58.152Z,18.90
2018-05-06T08:33:25.739Z,18.80
2018-05-06T08:35:53.281Z,18.90
2018-05-06T08:38:20.795Z,18.80
2018-05-06T08:40:48.325Z,18.80
2018-05-06T08:43:15.868Z,19.10
2018-05-06T08:45:43.481Z,19.20
2018-05-06T08:48:10.983Z,19.30
2018-05-06T08:50:38.530Z,19.40
2018-05-06T08:53:06.101Z,19.50
2018-05-06T08:55:33.633Z,19.60
2018-05-06T08:58:01.156Z,19.70
2018-05-06T09:00:28.867Z,19.90
2018-05-06T09:02:56.409Z,20.00
2018-05-06T09:05:23.942Z,20.10
2018-05-06T09:07:52.272Z,20.30
2018-05-06T09:10:20.069Z,20.30
2018-05-06T09:12:47.581Z,20.50
2018-05-06T09:15:15.147Z,20.50
2018-05-06T09:17:42.717Z,20.70
2018-05-06T09:20:10.258Z,20.70
2018-05-06T09:22:37.805Z,20.90
2018-05-06T09:25:05.341Z,21.00
2018-05-06T09:27:33.668Z,21.20
2018-05-06T09:30:01.203Z,21.10
2018-05-06T09:32:28.785Z,21.30
2018-05-06T09:34:56.327Z,21.50
2018-05-06T09:37:23.865Z,21.60
2018-05-06T09:39:51.448Z,21.70
2018-05-06T09:42:18.988Z,21.80
2018-05-06T09:44:46.524Z,21.80
2018-05-06T09:47:14.838Z,21.90
2018-05-06T09:49:42.376Z,21.80
2018-05-06T09:52:09.950Z,22.10
2018-05-06T09:54:37.687Z,22.10
2018-05-06T09:57:05.995Z,22.20
2018-05-06T09:59:33.528Z,22.10
2018-05-06T10:02:01.860Z,22.30
2018-05-06T10:04:29.408Z,22.30
2018-05-06T10:06:56.978Z,22.50
2018-05-06T10:09:24.494Z,22.50
2018-05-06T10:11:52.039Z,22.50
2018-05-06T10:14:19.580Z,22.70
2018-05-06T10:16:48.007Z,23.00
2018-05-06T10:19:15.526Z,22.90
2018-05-06T10:21:43.840Z,23.20
2018-05-06T10:24:11.352Z,23.10
2018-05-06T10:26:39.664Z,23.50
2018-05-06T10:29:07.195Z,23.40
2018-05-06T10:31:35.495Z,23.70
2018-05-06T10:34:03.032Z,23.60
2018-05-06T10:36:31.338Z,23.90
2018-05-06T10:38:58.867Z,23.90
2018-05-06T10:41:27.141Z,24.00
2018-05-06T10:43:55.445Z,24.10
2018-05-06T10:46:22.967Z,24.10
2018-05-06T10:48:51.396Z,24.20
2018-05-06T10:51:19.145Z,24.20
2018-05-06T10:53:46.696Z,24.30
2018-05-06T10:56:14.215Z,24.50
2018-05-06T10:58:42.518Z,24.60
2018-05-06T11:01:10.052Z,24.60
2018-05-06T11:03:38.357Z,24.70
2018-05-06T11:06:06.038Z,24.60
2018-05-06T11:08:33.596Z,24.50
2018-05-06T11:11:01.468Z,24.70
2018-05-06T11:13:29.032Z,24.80
2018-05-06T11:15:56.578Z,24.80
2018-05-06T11:18:24.153Z,25.00
2018-05-06T11:20:51.698Z,25.10
2018-05-06T11:23:19.225Z,25.00
2018-05-06T11:25:47.507Z,25.10
2018-05-06T11:28:15.061Z,25.00
2018-05-06T11:30:43.353Z,25.30
2018-05-06T11:33:10.901Z,25.30
2018-05-06T11:35:38.481Z,25.40
2018-05-06T11:38:06.015Z,25.50
2018-05-06T11:40:33.545Z,25.40
2018-05-06T11:43:01.088Z,25.50
2018-05-06T11:45:28.712Z,25.70
2018-05-06T11:47:56.263Z,25.70
2018-05-06T11:50:23.826Z,25.80
2018-05-06T11:52:51.446Z,25.90
2018-05-06T11:55:19.763Z,26.00
2018-05-06T11:57:47.281Z,26.00
2018-05-06T12:00:14.832Z,26.10
2018-05-06T12:02:42.351Z,26.20
2018-05-06T12:05:09.909Z,26.40
2018-05-06T12:07:37.458Z,26.40
2018-05-06T12:10:05.061Z,26.40
2018-05-06T12:12:32.573Z,26.40
2018-05-06T12:15:00.109Z,26.40
2018-05-06T12:17:28.388Z,26.80
2018-05-06T12:19:56.790Z,27.20
2018-05-06T12:22:24.297Z,27.20
2018-05-06T12:24:51.906Z,27.80
2018-05-06T12:27:19.493Z,28.40
2018-05-06T12:29:47.247Z,28.90
2018-05-06T12:32:14.767Z,29.80
2018-05-06T12:34:42.346Z,30.50
2018-05-06T12:37:09.896Z,31.50
2018-05-06T12:39:37.448Z,32.10
2018-05-06T12:42:04.980Z,32.10
2018-05-06T12:44:33.294Z,33.10
2018-05-06T12:47:00.813Z,33.00
2018-05-06T12:49:28.440Z,33.60
2018-05-06T12:51:57.521Z,33.60
2018-05-06T12:54:25.079Z,33.60
2018-05-06T12:56:52.595Z,34.00
2018-05-06T12:59:20.911Z,34.80
2018-05-06T13:01:48.434Z,34.80
2018-05-06T13:04:15.984Z,34.30
2018-05-06T13:06:44.271Z,34.00
2018-05-06T13:09:11.820Z,33.90
2018-05-06T13:11:40.107Z,34.80
2018-05-06T13:14:07.690Z,34.70
2018-05-06T13:16:35.231Z,34.70
2018-05-06T13:19:02.763Z,35.00
2018-05-06T13:21:31.079Z,35.10
2018-05-06T13:23:58.640Z,35.00
2018-05-06T13:26:26.187Z,35.20
2018-05-06T13:28:53.716Z,35.40
2018-05-06T13:31:22.031Z,36.50
2018-05-06T13:33:49.541Z,36.40
2018-05-06T13:36:17.145Z,36.10
2018-05-06T13:38:44.676Z,36.50
2018-05-06T13:41:12.976Z,36.50
2018-05-06T13:43:40.905Z,36.40
2018-05-06T13:46:09.225Z,36.80
2018-05-06T13:48:36.746Z,36.70
2018-05-06T13:51:05.082Z,36.80
2018-05-06T13:53:32.609Z,36.70
2018-05-06T13:56:00.209Z,36.50
2018-05-06T13:58:27.733Z,36.50
2018-05-06T14:00:55.313Z,36.50
2018-05-06T14:03:22.847Z,36.30
2018-05-06T14:05:50.394Z,36.10
2018-05-06T14:08:17.918Z,35.20
2018-05-06T14:10:45.545Z,35.80
2018-05-06T14:13:13.083Z,35.70
2018-05-06T14:15:40.624Z,35.90
2018-05-06T14:18:09.496Z,36.10
2018-05-06T14:20:37.815Z,36.60
2018-05-06T14:23:05.359Z,36.50
2018-05-06T14:25:32.925Z,36.60
2018-05-06T14:28:00.490Z,36.50
2018-05-06T14:30:28.143Z,36.80
2018-05-06T14:32:56.530Z,35.20
2018-05-06T14:35:24.099Z,35.20
2018-05-06T14:37:51.648Z,36.00
2018-05-06T14:40:19.182Z,36.60
2018-05-06T14:42:47.487Z,36.90
2018-05-06T14:45:15.067Z,36.90
2018-05-06T14:47:54.679Z,37.10
2018-05-06T14:50:22.228Z,36.70
2018-05-06T14:52:49.768Z,36.60
2018-05-06T14:55:18.082Z,36.90
2018-05-06T14:57:45.646Z,36.80
2018-05-06T15:00:13.171Z,37.20
2018-05-06T15:02:40.757Z,36.40
2018-05-06T15:05:08.281Z,36.70
2018-05-06T15:07:36.657Z,37.90
2018-05-06T15:10:04.936Z,37.90
2018-05-06T15:12:33.255Z,37.20
2018-05-06T15:15:00.794Z,37.20
2018-05-06T15:17:28.338Z,37.60
2018-05-06T15:19:55.877Z,37.00
2018-05-06T15:22:24.177Z,37.30
2018-05-06T15:24:51.709Z,37.20
2018-05-06T15:27:20.063Z,37.20
2018-05-06T15:29:47.577Z,37.20
2018-05-06T15:32:15.554Z,36.90
2018-05-06T15:34:43.091Z,37.10
2018-05-06T15:37:11.184Z,37.10
2018-05-06T15:39:38.743Z,37.30
2018-05-06T15:42:06.299Z,37.70
2018-05-06T15:44:33.874Z,37.90
2018-05-06T15:47:01.427Z,38.60
2018-05-06T15:49:28.942Z,38.40
2018-05-06T15:51:57.252Z,37.80
2018-05-06T15:54:24.815Z,37.80
2018-05-06T15:56:52.351Z,38.20
2018-05-06T15:59:19.885Z,38.30
2018-05-06T16:02:00.135Z,38.40
2018-05-06T16:04:27.759Z,38.30
2018-05-06T16:06:55.428Z,38.30
2018-05-06T16:09:24.508Z,38.20
2018-05-06T16:11:52.098Z,37.70
2018-05-06T16:14:19.606Z,38.30
2018-05-06T16:16:47.121Z,38.20
2018-05-06T16:19:14.875Z,38.20
2018-05-06T16:21:43.186Z,37.10
2018-05-06T16:24:11.497Z,37.40
2018-05-06T16:26:39.102Z,37.40
2018-05-06T16:31:40.399Z,38.20
2018-05-06T16:34:07.924Z,38.30
2018-05-06T16:36:35.452Z,38.10
2018-05-06T16:39:03.007Z,37.50
2018-05-06T16:41:30.526Z,37.10
2018-05-06T16:43:58.552Z,36.90
2018-05-06T16:46:26.192Z,37.00
2018-05-06T16:48:53.836Z,37.00
2018-05-06T16:51:21.493Z,36.40
2018-05-06T16:53:49.162Z,36.60
2018-05-06T16:56:16.697Z,36.50
2018-05-06T16:58:44.378Z,36.50
2018-05-06T17:01:11.897Z,36.40
2018-05-06T17:03:40.209Z,36.80
2018-05-06T17:06:07.726Z,36.80
2018-05-06T17:08:36.058Z,36.40
2018-05-06T17:11:03.587Z,36.30
2018-05-06T17:13:31.267Z,36.40
2018-05-06T17:15:58.854Z,36.00
2018-05-06T17:18:26.381Z,35.20
2018-05-06T17:20:54.043Z,35.20
2018-05-06T17:23:21.563Z,34.60
2018-05-06T17:25:49.895Z,34.80
2018-05-06T17:28:17.416Z,34.70
2018-05-06T17:30:44.972Z,34.80
2018-05-06T17:33:12.482Z,34.90
2018-05-06T17:35:40.123Z,35.20
2018-05-06T17:38:07.670Z,34.30
2018-05-06T17:40:35.353Z,34.30
2018-05-06T17:43:02.956Z,34.50
2018-05-06T17:45:31.281Z,34.20
2018-05-06T17:47:58.805Z,34.20
2018-05-06T17:50:26.400Z,34.60
2018-05-06T17:52:53.946Z,33.60
2018-05-06T17:55:21.483Z,33.00
2018-05-06T17:57:49.009Z,32.80
2018-05-06T18:00:16.583Z,33.00
2018-05-06T18:02:44.220Z,32.80
2018-05-06T18:05:11.847Z,32.50
2018-05-06T18:07:39.400Z,32.40
2018-05-06T18:10:06.962Z,31.90
2018-05-06T18:12:34.491Z,31.80
2018-05-06T18:15:02.979Z,31.30
2018-05-06T18:17:30.508Z,31.30
2018-05-06T18:19:58.122Z,30.10
2018-05-06T18:22:25.637Z,28.80
2018-05-06T18:24:53.928Z,26.60
2018-05-06T18:27:21.454Z,26.50
2018-05-06T18:29:49.231Z,26.10
2018-05-06T18:32:18.442Z,25.20
2018-05-06T18:34:45.937Z,25.10
2018-05-06T18:37:13.493Z,24.70
2018-05-06T18:39:41.045Z,24.40
2018-05-06T18:42:08.609Z,24.10
2018-05-06T18:44:36.471Z,24.10
2018-05-06T18:47:04.167Z,23.70
2018-05-06T18:49:32.922Z,23.40
2018-05-06T18:52:00.514Z,23.20
2018-05-06T18:54:28.038Z,23.00
2018-05-06T18:56:55.573Z,22.80
2018-05-06T18:59:23.093Z,22.60
2018-05-06T19:01:50.624Z,22.30
2018-05-06T19:04:18.146Z,22.20
2018-05-06T19:06:45.697Z,22.10
2018-05-06T19:09:13.975Z,21.80
2018-05-06T19:11:42.395Z,21.70
2018-05-06T19:14:09.915Z,21.60
2018-05-06T19:16:37.519Z,21.60
2018-05-06T19:19:05.105Z,21.50
2018-05-06T19:21:32.744Z,21.30
2018-05-06T19:24:00.274Z,21.20
2018-05-06T19:26:27.819Z,21.00
2018-05-06T19:28:55.361Z,20.90
2018-05-06T19:31:23.688Z,20.70
2018-05-06T19:33:52.422Z,20.60
2018-05-06T19:36:20.722Z,20.50
2018-05-06T19:38:48.313Z,20.40
2018-05-06T19:41:15.823Z,20.40
2018-05-06T19:43:44.141Z,20.30
2018-05-06T19:46:11.665Z,20.20
2018-05-06T19:48:39.245Z,20.20
2018-05-06T19:51:06.738Z,20.10
2018-05-06T19:53:34.251Z,20.10
2018-05-06T19:56:01.840Z,19.90
2018-05-06T19:58:29.431Z,19.90
2018-05-06T20:00:56.978Z,19.80
2018-05-06T20:03:25.257Z,19.70
2018-05-06T20:05:52.973Z,19.60
2018-05-06T20:08:20.548Z,19.60
2018-05-06T20:10:48.079Z,19.50
2018-05-06T20:13:15.652Z,19.40
2018-05-06T20:15:43.194Z,19.40
2018-05-06T20:18:10.746Z,19.30
2018-05-06T20:20:39.549Z,19.20
2018-05-06T20:23:07.073Z,19.10
2018-05-06T20:25:35.360Z,19.00
2018-05-06T20:28:03.681Z,19.10
2018-05-06T20:30:31.200Z,19.00
2018-05-06T20:32:58.739Z,19.00
2018-05-06T20:35:27.055Z,18.90
2018-05-06T20:37:54.589Z,18.80
2018-05-06T20:40:22.893Z,18.70
2018-05-06T20:42:50.463Z,18.70
2018-05-06T20:45:17.994Z,18.70
2018-05-06T20:47:45.635Z,18.50
2018-05-06T20:50:13.239Z,18.60
2018-05-06T20:52:40.771Z,18.60
2018-05-06T20:55:08.291Z,18.50
2018-05-06T20:57:35.869Z,18.40
2018-05-06T21:00:04.159Z,18.30
2018-05-06T21:02:31.735Z,18.20
2018-05-06T21:04:59.272Z,18.20
2018-05-06T21:07:27.561Z,18.00
2018-05-06T21:09:55.081Z,18.00
2018-05-06T21:12:22.718Z,18.00
2018-05-06T21:14:50.374Z,18.00
2018-05-06T21:17:17.903Z,17.90
2018-05-06T21:19:45.748Z,18.00
2018-05-06T21:22:13.353Z,18.00
2018-05-06T21:24:40.915Z,17.90
2018-05-06T21:27:08.463Z,17.80
2018-05-06T21:29:36.027Z,17.80
2018-05-06T21:32:03.575Z,17.80
2018-05-06T21:34:31.124Z,17.70
2018-05-06T21:36:58.686Z,17.60
2018-05-06T21:39:26.230Z,17.60
2018-05-06T21:41:53.787Z,17.60
2018-05-06T21:44:29.158Z,17.40
2018-05-06T21:46:56.706Z,17.40
2018-05-06T21:49:24.221Z,17.30
2018-05-06T21:51:51.759Z,17.40
2018-05-06T21:54:19.844Z,17.20
2018-05-06T21:56:47.463Z,17.20
2018-05-06T21:59:14.985Z,17.10
2018-05-06T22:01:43.399Z,17.10
2018-05-06T22:04:11.658Z,17.00
2018-05-06T22:06:39.201Z,16.90
2018-05-06T22:09:06.825Z,17.00
2018-05-06T22:11:34.363Z,16.90
2018-05-06T22:14:01.924Z,16.80
2018-05-06T22:16:29.500Z,16.70
2018-05-06T22:18:57.044Z,16.50
2018-05-06T22:21:24.593Z,16.40
2018-05-06T22:23:52.166Z,16.30
2018-05-06T22:26:19.714Z,16.10
2018-05-06T22:28:47.252Z,16.10
2018-05-06T22:31:15.019Z,15.70
2018-05-06T22:33:42.561Z,15.60
2018-05-06T22:36:10.105Z,15.50
2018-05-06T22:38:37.677Z,15.50
2018-05-06T22:41:05.218Z,15.20
2018-05-06T22:43:33.535Z,15.10
2018-05-06T22:46:01.107Z,15.00
2018-05-06T22:48:28.661Z,15.00
2018-05-06T22:50:56.197Z,14.90
2018-05-06T22:53:23.764Z,14.70
2018-05-06T22:55:51.301Z,14.70
2018-05-06T22:58:18.838Z,14.50
2018-05-06T23:00:47.179Z,14.50
2018-05-06T23:03:14.717Z,14.40
2018-05-06T23:05:42.900Z,14.40
2018-05-06T23:08:10.489Z,14.10
2018-05-06T23:10:38.030Z,14.00
2018-05-06T23:13:05.577Z,14.10
2018-05-06T23:15:33.150Z,14.30
2018-05-06T23:18:00.694Z,14.30
2018-05-06T23:20:28.231Z,14.20
2018-05-06T23:22:55.802Z,14.10
2018-05-06T23:25:23.342Z,13.90
2018-05-06T23:27:51.730Z,13.80
2018-05-06T23:30:19.314Z,13.70
2018-05-06T23:32:46.889Z,13.70
2018-05-06T23:35:14.430Z,13.70
2018-05-06T23:37:42.002Z,13.90
2018-05-06T23:40:09.550Z,13.90
2018-05-06T23:42:37.089Z,13.60
2018-05-06T23:45:04.768Z,13.40
2018-05-06T23:47:32.305Z,13.20
2018-05-06T23:49:59.847Z,13.00
2018-05-06T23:52:27.482Z,13.00
2018-05-06T23:54:54.998Z,13.20
2018-05-06T23:57:22.518Z,13.00
2018-05-06T23:59:50.069Z,12.90
